sensor_id;sensor_type;location;lat;lon;timestamp;temperature;humidity
11454;DHT22;5783;55.174;61.310;2023-03-24T00:01:48;19.60;31.90
11454;DHT22;5783;55.174;61.310;2023-03-24T00:04:17;19.60;32.00
11454;DHT22;5783;55.174;61.310;2023-03-24T00:06:47;19.60;31.80
11454;DHT22;5783;55.174;61.310;2023-03-24T00:09:16;19.60;32.10
11454;DHT22;5783;55.174;61.310;2023-03-24T00:11:45;19.60;32.00
11454;DHT22;5783;55.174;61.310;2023-03-24T00:14:14;19.60;32.00
11454;DHT22;5783;55.174;61.310;2023-03-24T00:16:44;19.70;31.90
11454;DHT22;5783;55.174;61.310;2023-03-24T00:19:13;19.70;32.10
11454;DHT22;5783;55.174;61.310;2023-03-24T00:21:43;19.60;31.80
11454;DHT22;5783;55.174;61.310;2023-03-24T00:24:12;19.60;31.90
11454;DHT22;5783;55.174;61.310;2023-03-24T00:26:41;19.60;31.80
11454;DHT22;5783;55.174;61.310;2023-03-24T00:29:11;19.60;31.70
11454;DHT22;5783;55.174;61.310;2023-03-24T00:31:40;19.60;31.60
11454;DHT22;5783;55.174;61.310;2023-03-24T00:34:09;19.60;31.50
11454;DHT22;5783;55.174;61.310;2023-03-24T00:36:39;19.60;31.50
11454;DHT22;5783;55.174;61.310;2023-03-24T00:39:08;19.60;31.50
11454;DHT22;5783;55.174;61.310;2023-03-24T00:41:37;19.60;31.60
11454;DHT22;5783;55.174;61.310;2023-03-24T00:44:07;19.60;31.70
11454;DHT22;5783;55.174;61.310;2023-03-24T00:46:38;19.60;31.60
11454;DHT22;5783;55.174;61.310;2023-03-24T00:49:09;19.60;31.70
11454;DHT22;5783;55.174;61.310;2023-03-24T00:51:40;19.60;31.80
11454;DHT22;5783;55.174;61.310;2023-03-24T00:54:11;19.60;31.80
11454;DHT22;5783;55.174;61.310;2023-03-24T00:56:42;19.60;31.90
11454;DHT22;5783;55.174;61.310;2023-03-24T00:59:13;19.70;32.00
11454;DHT22;5783;55.174;61.310;2023-03-24T01:01:42;19.70;32.00
11454;DHT22;5783;55.174;61.310;2023-03-24T01:04:12;19.70;32.00
11454;DHT22;5783;55.174;61.310;2023-03-24T01:06:41;19.70;32.20
11454;DHT22;5783;55.174;61.310;2023-03-24T01:09:10;19.70;32.10
11454;DHT22;5783;55.174;61.310;2023-03-24T01:11:40;19.70;32.10
11454;DHT22;5783;55.174;61.310;2023-03-24T01:14:10;19.80;32.20
11454;DHT22;5783;55.174;61.310;2023-03-24T01:16:40;19.80;32.10
11454;DHT22;5783;55.174;61.310;2023-03-24T01:19:10;19.80;32.10
11454;DHT22;5783;55.174;61.310;2023-03-24T01:21:39;19.80;31.90
11454;DHT22;5783;55.174;61.310;2023-03-24T01:24:09;19.80;32.00
11454;DHT22;5783;55.174;61.310;2023-03-24T01:26:39;19.80;32.10
11454;DHT22;5783;55.174;61.310;2023-03-24T01:29:08;19.80;31.90
11454;DHT22;5783;55.174;61.310;2023-03-24T01:31:37;19.90;31.80
11454;DHT22;5783;55.174;61.310;2023-03-24T01:34:07;19.90;31.60
11454;DHT22;5783;55.174;61.310;2023-03-24T01:36:36;19.90;31.50
11454;DHT22;5783;55.174;61.310;2023-03-24T01:39:05;19.80;31.60
11454;DHT22;5783;55.174;61.310;2023-03-24T01:41:37;19.80;31.60
11454;DHT22;5783;55.174;61.310;2023-03-24T01:47:15;19.70;31.70
11454;DHT22;5783;55.174;61.310;2023-03-24T01:50:04;19.70;31.80
11454;DHT22;5783;55.174;61.310;2023-03-24T01:52:35;19.70;31.80
11454;DHT22;5783;55.174;61.310;2023-03-24T01:55:08;19.70;31.80
11454;DHT22;5783;55.174;61.310;2023-03-24T01:58:13;19.70;31.80
11454;DHT22;5783;55.174;61.310;2023-03-24T02:00:29;19.70;31.80
11454;DHT22;5783;55.174;61.310;2023-03-24T02:03:01;19.70;31.80
11454;DHT22;5783;55.174;61.310;2023-03-24T02:05:34;19.80;32.00
11454;DHT22;5783;55.174;61.310;2023-03-24T02:10:37;19.70;32.20
11454;DHT22;5783;55.174;61.310;2023-03-24T02:13:07;19.80;32.30
11454;DHT22;5783;55.174;61.310;2023-03-24T02:34:02;19.70;32.40
11454;DHT22;5783;55.174;61.310;2023-03-24T02:45:36;19.70;32.20
11454;DHT22;5783;55.174;61.310;2023-03-24T02:55:03;19.70;32.20
11454;DHT22;5783;55.174;61.310;2023-03-24T03:03:18;19.70;32.20
11454;DHT22;5783;55.174;61.310;2023-03-24T03:06:23;19.80;32.20
11454;DHT22;5783;55.174;61.310;2023-03-24T03:08:21;19.80;32.40
11454;DHT22;5783;55.174;61.310;2023-03-24T03:10:52;19.80;32.30
11454;DHT22;5783;55.174;61.310;2023-03-24T03:17:08;19.80;32.10
11454;DHT22;5783;55.174;61.310;2023-03-24T03:21:58;19.80;32.30
11454;DHT22;5783;55.174;61.310;2023-03-24T03:24:48;19.80;32.40
11454;DHT22;5783;55.174;61.310;2023-03-24T03:27:38;19.80;32.30
11454;DHT22;5783;55.174;61.310;2023-03-24T03:33:02;19.90;32.30
11454;DHT22;5783;55.174;61.310;2023-03-24T03:39:35;19.90;32.10
11454;DHT22;5783;55.174;61.310;2023-03-24T03:41:30;19.90;32.10
11454;DHT22;5783;55.174;61.310;2023-03-24T03:44:00;19.90;32.10
11454;DHT22;5783;55.174;61.310;2023-03-24T03:46:29;19.90;32.10
11454;DHT22;5783;55.174;61.310;2023-03-24T03:48:59;20.00;32.20
11454;DHT22;5783;55.174;61.310;2023-03-24T03:51:28;20.00;32.10
11454;DHT22;5783;55.174;61.310;2023-03-24T03:54:00;20.00;32.20
11454;DHT22;5783;55.174;61.310;2023-03-24T03:56:32;20.00;32.30
11454;DHT22;5783;55.174;61.310;2023-03-24T03:59:03;20.00;32.10
11454;DHT22;5783;55.174;61.310;2023-03-24T04:01:34;20.10;32.20
11454;DHT22;5783;55.174;61.310;2023-03-24T04:10:29;20.10;32.20
11454;DHT22;5783;55.174;61.310;2023-03-24T04:13:21;20.10;32.20
11454;DHT22;5783;55.174;61.310;2023-03-24T04:28:09;20.20;32.00
11454;DHT22;5783;55.174;61.310;2023-03-24T04:34:24;20.30;31.90
11454;DHT22;5783;55.174;61.310;2023-03-24T04:36:56;20.40;31.30
11454;DHT22;5783;55.174;61.310;2023-03-24T04:38:55;20.50;30.90
11454;DHT22;5783;55.174;61.310;2023-03-24T04:41:28;20.60;30.80
11454;DHT22;5783;55.174;61.310;2023-03-24T04:43:59;20.70;30.90
11454;DHT22;5783;55.174;61.310;2023-03-24T04:46:30;20.80;30.70
11454;DHT22;5783;55.174;61.310;2023-03-24T04:49:00;20.90;30.70
11454;DHT22;5783;55.174;61.310;2023-03-24T04:51:29;21.00;30.30
11454;DHT22;5783;55.174;61.310;2023-03-24T04:53:59;21.20;30.20
11454;DHT22;5783;55.174;61.310;2023-03-24T04:59:37;21.30;30.00
11454;DHT22;5783;55.174;61.310;2023-03-24T05:02:06;21.30;30.20
11454;DHT22;5783;55.174;61.310;2023-03-24T05:04:35;21.40;30.10
11454;DHT22;5783;55.174;61.310;2023-03-24T05:07:05;21.50;30.00
11454;DHT22;5783;55.174;61.310;2023-03-24T05:09:34;21.50;29.70
11454;DHT22;5783;55.174;61.310;2023-03-24T05:12:04;21.50;29.60
11454;DHT22;5783;55.174;61.310;2023-03-24T05:14:33;21.50;29.70
11454;DHT22;5783;55.174;61.310;2023-03-24T05:17:02;21.60;29.70
11454;DHT22;5783;55.174;61.310;2023-03-24T05:19:32;21.60;29.60
11454;DHT22;5783;55.174;61.310;2023-03-24T05:22:01;21.70;29.50
11454;DHT22;5783;55.174;61.310;2023-03-24T05:24:31;21.70;29.50
11454;DHT22;5783;55.174;61.310;2023-03-24T05:27:00;21.70;29.50
11454;DHT22;5783;55.174;61.310;2023-03-24T05:29:29;21.90;29.40
11454;DHT22;5783;55.174;61.310;2023-03-24T05:31:58;22.10;28.90
11454;DHT22;5783;55.174;61.310;2023-03-24T05:34:28;22.30;28.50
11454;DHT22;5783;55.174;61.310;2023-03-24T05:36:57;22.40;28.20
11454;DHT22;5783;55.174;61.310;2023-03-24T05:39:27;22.50;28.10
11454;DHT22;5783;55.174;61.310;2023-03-24T05:41:56;22.60;27.90
11454;DHT22;5783;55.174;61.310;2023-03-24T05:44:25;22.70;27.80
11454;DHT22;5783;55.174;61.310;2023-03-24T05:46:55;22.70;27.70
11454;DHT22;5783;55.174;61.310;2023-03-24T05:49:24;22.70;27.70
11454;DHT22;5783;55.174;61.310;2023-03-24T05:51:53;22.70;27.70
11454;DHT22;5783;55.174;61.310;2023-03-24T05:54:22;22.70;27.50
11454;DHT22;5783;55.174;61.310;2023-03-24T05:56:51;22.70;27.50
11454;DHT22;5783;55.174;61.310;2023-03-24T05:59:20;22.70;27.50
11454;DHT22;5783;55.174;61.310;2023-03-24T06:01:49;22.50;27.40
11454;DHT22;5783;55.174;61.310;2023-03-24T06:04:19;22.40;27.60
11454;DHT22;5783;55.174;61.310;2023-03-24T06:06:49;22.40;27.80
11454;DHT22;5783;55.174;61.310;2023-03-24T06:09:19;22.40;27.80
11454;DHT22;5783;55.174;61.310;2023-03-24T06:11:49;22.30;27.90
11454;DHT22;5783;55.174;61.310;2023-03-24T06:14:18;22.20;27.80
11454;DHT22;5783;55.174;61.310;2023-03-24T06:16:47;22.20;28.00
11454;DHT22;5783;55.174;61.310;2023-03-24T06:19:17;22.10;27.90
11454;DHT22;5783;55.174;61.310;2023-03-24T06:21:48;22.10;28.00
11454;DHT22;5783;55.174;61.310;2023-03-24T06:24:17;22.10;28.10
11454;DHT22;5783;55.174;61.310;2023-03-24T06:26:47;22.00;28.30
11454;DHT22;5783;55.174;61.310;2023-03-24T06:29:16;22.10;28.20
11454;DHT22;5783;55.174;61.310;2023-03-24T06:31:47;22.10;28.30
11454;DHT22;5783;55.174;61.310;2023-03-24T06:34:16;22.10;28.50
11454;DHT22;5783;55.174;61.310;2023-03-24T06:36:45;22.20;28.40
11454;DHT22;5783;55.174;61.310;2023-03-24T06:39:14;22.10;28.40
11454;DHT22;5783;55.174;61.310;2023-03-24T06:41:43;22.00;28.50
11454;DHT22;5783;55.174;61.310;2023-03-24T06:44:12;22.00;28.70
11454;DHT22;5783;55.174;61.310;2023-03-24T06:46:42;21.90;29.00
11454;DHT22;5783;55.174;61.310;2023-03-24T06:49:12;21.80;29.10
11454;DHT22;5783;55.174;61.310;2023-03-24T06:51:41;21.80;29.20
11454;DHT22;5783;55.174;61.310;2023-03-24T06:54:10;21.70;29.20
11454;DHT22;5783;55.174;61.310;2023-03-24T06:56:40;21.70;29.30
11454;DHT22;5783;55.174;61.310;2023-03-24T06:59:10;21.60;29.50
11454;DHT22;5783;55.174;61.310;2023-03-24T07:01:40;21.60;29.50
11454;DHT22;5783;55.174;61.310;2023-03-24T07:04:09;21.70;29.50
11454;DHT22;5783;55.174;61.310;2023-03-24T07:06:38;21.70;29.30
11454;DHT22;5783;55.174;61.310;2023-03-24T07:09:08;21.60;29.40
11454;DHT22;5783;55.174;61.310;2023-03-24T07:11:38;21.60;29.50
11454;DHT22;5783;55.174;61.310;2023-03-24T07:14:28;21.50;29.40
11454;DHT22;5783;55.174;61.310;2023-03-24T07:16:57;21.40;29.60
11454;DHT22;5783;55.174;61.310;2023-03-24T07:19:27;21.30;29.60
11454;DHT22;5783;55.174;61.310;2023-03-24T07:21:57;21.30;29.70
11454;DHT22;5783;55.174;61.310;2023-03-24T07:24:27;21.20;29.90
11454;DHT22;5783;55.174;61.310;2023-03-24T07:26:56;21.20;30.00
11454;DHT22;5783;55.174;61.310;2023-03-24T07:29:25;21.10;30.00
11454;DHT22;5783;55.174;61.310;2023-03-24T07:31:54;21.10;30.10
11454;DHT22;5783;55.174;61.310;2023-03-24T07:34:43;21.10;30.00
11454;DHT22;5783;55.174;61.310;2023-03-24T07:37:13;21.20;30.00
11454;DHT22;5783;55.174;61.310;2023-03-24T07:39:43;21.20;30.00
11454;DHT22;5783;55.174;61.310;2023-03-24T07:42:13;21.20;29.90
11454;DHT22;5783;55.174;61.310;2023-03-24T07:44:42;21.10;29.90
11454;DHT22;5783;55.174;61.310;2023-03-24T07:47:12;21.00;30.00
11454;DHT22;5783;55.174;61.310;2023-03-24T07:49:41;20.90;30.20
11454;DHT22;5783;55.174;61.310;2023-03-24T07:52:10;20.90;30.20
11454;DHT22;5783;55.174;61.310;2023-03-24T07:54:39;20.90;30.00
11454;DHT22;5783;55.174;61.310;2023-03-24T07:57:08;21.00;30.10
11454;DHT22;5783;55.174;61.310;2023-03-24T07:59:37;21.00;30.10
11454;DHT22;5783;55.174;61.310;2023-03-24T08:02:10;21.00;30.00
11454;DHT22;5783;55.174;61.310;2023-03-24T08:04:39;21.00;30.30
11454;DHT22;5783;55.174;61.310;2023-03-24T08:07:08;21.10;30.00
11454;DHT22;5783;55.174;61.310;2023-03-24T08:09:40;21.10;30.10
11454;DHT22;5783;55.174;61.310;2023-03-24T08:12:09;21.20;30.00
11454;DHT22;5783;55.174;61.310;2023-03-24T08:14:38;21.20;30.00
11454;DHT22;5783;55.174;61.310;2023-03-24T08:17:07;21.30;30.00
11454;DHT22;5783;55.174;61.310;2023-03-24T08:19:37;21.30;30.00
11454;DHT22;5783;55.174;61.310;2023-03-24T08:22:06;21.40;30.00
11454;DHT22;5783;55.174;61.310;2023-03-24T08:24:36;21.50;30.00
11454;DHT22;5783;55.174;61.310;2023-03-24T08:27:05;21.60;29.90
11454;DHT22;5783;55.174;61.310;2023-03-24T08:29:34;21.70;29.90
11454;DHT22;5783;55.174;61.310;2023-03-24T08:32:04;21.80;29.50
11454;DHT22;5783;55.174;61.310;2023-03-24T08:34:33;21.90;29.60
11454;DHT22;5783;55.174;61.310;2023-03-24T08:37:02;22.00;29.50
11454;DHT22;5783;55.174;61.310;2023-03-24T08:39:31;22.10;29.40
11454;DHT22;5783;55.174;61.310;2023-03-24T08:42:02;22.10;29.20
11454;DHT22;5783;55.174;61.310;2023-03-24T08:44:31;22.20;29.40
11454;DHT22;5783;55.174;61.310;2023-03-24T08:47:00;22.20;29.00
11454;DHT22;5783;55.174;61.310;2023-03-24T08:49:30;22.20;29.20
11454;DHT22;5783;55.174;61.310;2023-03-24T08:51:59;22.30;29.30
11454;DHT22;5783;55.174;61.310;2023-03-24T08:54:28;22.30;29.10
11454;DHT22;5783;55.174;61.310;2023-03-24T08:56:57;22.30;29.00
11454;DHT22;5783;55.174;61.310;2023-03-24T08:59:26;22.30;29.10
11454;DHT22;5783;55.174;61.310;2023-03-24T09:01:56;22.40;29.00
11454;DHT22;5783;55.174;61.310;2023-03-24T09:04:25;22.40;29.00
11454;DHT22;5783;55.174;61.310;2023-03-24T09:06:54;22.40;28.90
11454;DHT22;5783;55.174;61.310;2023-03-24T09:09:25;22.40;28.90
11454;DHT22;5783;55.174;61.310;2023-03-24T09:11:54;22.50;28.80
11454;DHT22;5783;55.174;61.310;2023-03-24T09:14:23;22.40;28.70
11454;DHT22;5783;55.174;61.310;2023-03-24T09:16:53;22.40;29.00
11454;DHT22;5783;55.174;61.310;2023-03-24T09:19:22;22.40;29.00
11454;DHT22;5783;55.174;61.310;2023-03-24T09:21:51;22.40;29.30
11454;DHT22;5783;55.174;61.310;2023-03-24T09:24:20;22.50;29.50
11454;DHT22;5783;55.174;61.310;2023-03-24T09:26:49;22.70;28.90
11454;DHT22;5783;55.174;61.310;2023-03-24T09:29:18;22.90;31.00
11454;DHT22;5783;55.174;61.310;2023-03-24T09:31:47;23.00;29.10
11454;DHT22;5783;55.174;61.310;2023-03-24T09:34:19;23.00;28.60
11454;DHT22;5783;55.174;61.310;2023-03-24T09:36:48;23.10;28.10
11454;DHT22;5783;55.174;61.310;2023-03-24T09:39:19;23.10;27.70
11454;DHT22;5783;55.174;61.310;2023-03-24T09:41:48;23.10;27.70
11454;DHT22;5783;55.174;61.310;2023-03-24T09:47:28;23.20;27.50
11454;DHT22;5783;55.174;61.310;2023-03-24T09:50:00;23.10;27.60
11454;DHT22;5783;55.174;61.310;2023-03-24T09:55:41;23.10;27.40
11454;DHT22;5783;55.174;61.310;2023-03-24T09:58:12;23.10;27.50
11454;DHT22;5783;55.174;61.310;2023-03-24T10:00:42;23.10;27.50
11454;DHT22;5783;55.174;61.310;2023-03-24T10:06:24;23.20;27.30
11454;DHT22;5783;55.174;61.310;2023-03-24T10:21:27;23.20;27.30
11454;DHT22;5783;55.174;61.310;2023-03-24T10:30:36;23.30;27.10
11454;DHT22;5783;55.174;61.310;2023-03-24T10:36:17;23.30;27.20
11454;DHT22;5783;55.174;61.310;2023-03-24T10:38:47;23.40;27.00
11454;DHT22;5783;55.174;61.310;2023-03-24T10:41:36;23.50;26.90
11454;DHT22;5783;55.174;61.310;2023-03-24T10:44:06;23.50;27.50
11454;DHT22;5783;55.174;61.310;2023-03-24T10:46:42;23.50;37.00
11454;DHT22;5783;55.174;61.310;2023-03-24T10:52:02;23.50;38.40
11454;DHT22;5783;55.174;61.310;2023-03-24T10:54:32;23.50;26.70
11454;DHT22;5783;55.174;61.310;2023-03-24T10:57:04;23.50;27.50
11454;DHT22;5783;55.174;61.310;2023-03-24T11:00:08;23.50;27.30
11454;DHT22;5783;55.174;61.310;2023-03-24T11:05:18;23.50;27.30
11454;DHT22;5783;55.174;61.310;2023-03-24T11:10:58;23.50;27.30
11454;DHT22;5783;55.174;61.310;2023-03-24T11:13:30;23.50;27.10
11454;DHT22;5783;55.174;61.310;2023-03-24T11:16:19;23.50;27.20
11454;DHT22;5783;55.174;61.310;2023-03-24T11:19:16;23.40;26.80
11454;DHT22;5783;55.174;61.310;2023-03-24T11:21:42;23.40;27.00
11454;DHT22;5783;55.174;61.310;2023-03-24T11:24:34;23.40;27.30
11454;DHT22;5783;55.174;61.310;2023-03-24T11:27:02;23.50;27.00
11454;DHT22;5783;55.174;61.310;2023-03-24T11:29:33;23.50;27.30
11454;DHT22;5783;55.174;61.310;2023-03-24T11:35:15;23.50;27.20
11454;DHT22;5783;55.174;61.310;2023-03-24T11:37:45;23.50;27.00
11454;DHT22;5783;55.174;61.310;2023-03-24T11:40:18;23.50;27.20
11454;DHT22;5783;55.174;61.310;2023-03-24T11:46:32;23.50;27.00
11454;DHT22;5783;55.174;61.310;2023-03-24T11:51:38;23.20;27.30
11454;DHT22;5783;55.174;61.310;2023-03-24T11:54:11;23.20;27.10
11454;DHT22;5783;55.174;61.310;2023-03-24T11:57:02;23.10;27.50
11454;DHT22;5783;55.174;61.310;2023-03-24T12:00:27;23.20;27.50
11454;DHT22;5783;55.174;61.310;2023-03-24T12:03:22;23.20;27.40
11454;DHT22;5783;55.174;61.310;2023-03-24T12:11:37;23.20;27.30
11454;DHT22;5783;55.174;61.310;2023-03-24T12:14:04;23.20;27.80
11454;DHT22;5783;55.174;61.310;2023-03-24T12:29:14;23.20;27.50
11454;DHT22;5783;55.174;61.310;2023-03-24T12:38:02;23.20;27.50
11454;DHT22;5783;55.174;61.310;2023-03-24T12:49:59;23.10;27.90
11454;DHT22;5783;55.174;61.310;2023-03-24T12:52:49;23.10;29.50
11454;DHT22;5783;55.174;61.310;2023-03-24T13:04:58;23.10;28.30
11454;DHT22;5783;55.174;61.310;2023-03-24T13:07:17;23.10;28.40
11454;DHT22;5783;55.174;61.310;2023-03-24T13:16:38;23.00;28.50
11454;DHT22;5783;55.174;61.310;2023-03-24T13:18:58;23.00;28.50
11454;DHT22;5783;55.174;61.310;2023-03-24T13:21:29;23.00;28.20
11454;DHT22;5783;55.174;61.310;2023-03-24T13:24:19;23.00;28.40
11454;DHT22;5783;55.174;61.310;2023-03-24T13:27:10;23.00;28.40
11454;DHT22;5783;55.174;61.310;2023-03-24T13:39:06;22.80;30.00
11454;DHT22;5783;55.174;61.310;2023-03-24T13:41:39;22.80;34.70
11454;DHT22;5783;55.174;61.310;2023-03-24T13:44:41;22.70;28.40
11454;DHT22;5783;55.174;61.310;2023-03-24T13:46:42;22.70;28.50
11454;DHT22;5783;55.174;61.310;2023-03-24T13:49:13;22.60;28.40
11454;DHT22;5783;55.174;61.310;2023-03-24T13:51:45;22.70;28.40
11454;DHT22;5783;55.174;61.310;2023-03-24T13:54:34;22.60;28.40
11454;DHT22;5783;55.174;61.310;2023-03-24T13:57:07;22.60;28.50
11454;DHT22;5783;55.174;61.310;2023-03-24T14:09:05;22.50;29.10
11454;DHT22;5783;55.174;61.310;2023-03-24T14:14:27;22.40;29.10
11454;DHT22;5783;55.174;61.310;2023-03-24T14:17:15;22.40;29.30
11454;DHT22;5783;55.174;61.310;2023-03-24T14:22:56;22.30;29.30
11454;DHT22;5783;55.174;61.310;2023-03-24T14:32:00;22.20;29.50
11454;DHT22;5783;55.174;61.310;2023-03-24T14:33:59;22.20;29.50
11454;DHT22;5783;55.174;61.310;2023-03-24T14:45:35;22.10;29.70
11454;DHT22;5783;55.174;61.310;2023-03-24T14:47:38;22.10;29.80
11454;DHT22;5783;55.174;61.310;2023-03-24T14:50:27;22.00;29.90
11454;DHT22;5783;55.174;61.310;2023-03-24T14:53:17;21.90;30.00
11454;DHT22;5783;55.174;61.310;2023-03-24T14:55:47;21.90;30.10
11454;DHT22;5783;55.174;61.310;2023-03-24T14:58:37;21.70;30.30
11454;DHT22;5783;55.174;61.310;2023-03-24T15:01:10;21.60;32.70
11454;DHT22;5783;55.174;61.310;2023-03-24T15:06:31;21.40;31.40
11454;DHT22;5783;55.174;61.310;2023-03-24T15:09:00;21.30;31.20
11454;DHT22;5783;55.174;61.310;2023-03-24T15:11:49;21.20;32.40
11454;DHT22;5783;55.174;61.310;2023-03-24T15:19:59;21.10;32.30
11454;DHT22;5783;55.174;61.310;2023-03-24T15:25:43;21.10;32.50
11454;DHT22;5783;55.174;61.310;2023-03-24T15:28:32;21.00;32.70
11454;DHT22;5783;55.174;61.310;2023-03-24T15:31:02;21.00;33.50
11454;DHT22;5783;55.174;61.310;2023-03-24T15:36:22;21.00;33.90
11454;DHT22;5783;55.174;61.310;2023-03-24T15:38:52;21.00;36.20
11454;DHT22;5783;55.174;61.310;2023-03-24T15:41:22;20.90;47.90
11454;DHT22;5783;55.174;61.310;2023-03-24T15:43:52;20.90;39.50
11454;DHT22;5783;55.174;61.310;2023-03-24T15:46:41;21.00;41.60
11454;DHT22;5783;55.174;61.310;2023-03-24T15:49:32;21.00;43.60
11454;DHT22;5783;55.174;61.310;2023-03-24T15:57:45;20.90;33.30
11454;DHT22;5783;55.174;61.310;2023-03-24T16:00:17;20.90;33.40
11454;DHT22;5783;55.174;61.310;2023-03-24T16:02:49;20.90;33.50
11454;DHT22;5783;55.174;61.310;2023-03-24T16:05:43;20.90;33.50
11454;DHT22;5783;55.174;61.310;2023-03-24T16:11:20;20.90;33.50
11454;DHT22;5783;55.174;61.310;2023-03-24T16:13:50;20.90;33.60
11454;DHT22;5783;55.174;61.310;2023-03-24T16:16:39;20.90;33.70
11454;DHT22;5783;55.174;61.310;2023-03-24T16:19:09;20.90;33.70
11454;DHT22;5783;55.174;61.310;2023-03-24T16:21:39;20.90;33.70
11454;DHT22;5783;55.174;61.310;2023-03-24T16:24:08;20.90;33.70
11454;DHT22;5783;55.174;61.310;2023-03-24T16:26:37;21.00;33.70
11454;DHT22;5783;55.174;61.310;2023-03-24T16:29:26;21.00;33.70
11454;DHT22;5783;55.174;61.310;2023-03-24T16:31:56;21.00;33.70
11454;DHT22;5783;55.174;61.310;2023-03-24T16:34:26;21.00;33.80
11454;DHT22;5783;55.174;61.310;2023-03-24T16:36:55;21.00;33.60
11454;DHT22;5783;55.174;61.310;2023-03-24T16:39:26;21.00;33.70
11454;DHT22;5783;55.174;61.310;2023-03-24T16:41:56;21.00;33.70
11454;DHT22;5783;55.174;61.310;2023-03-24T16:44:26;21.00;33.70
11454;DHT22;5783;55.174;61.310;2023-03-24T16:46:56;21.00;33.80
11454;DHT22;5783;55.174;61.310;2023-03-24T16:49:25;21.00;33.80
11454;DHT22;5783;55.174;61.310;2023-03-24T16:51:54;21.00;33.80
11454;DHT22;5783;55.174;61.310;2023-03-24T16:54:23;20.90;33.70
11454;DHT22;5783;55.174;61.310;2023-03-24T16:56:52;20.90;33.80
11454;DHT22;5783;55.174;61.310;2023-03-24T16:59:21;21.00;33.80
11454;DHT22;5783;55.174;61.310;2023-03-24T17:01:52;21.00;33.90
11454;DHT22;5783;55.174;61.310;2023-03-24T17:04:21;20.90;33.90
11454;DHT22;5783;55.174;61.310;2023-03-24T17:06:52;20.90;33.40
11454;DHT22;5783;55.174;61.310;2023-03-24T17:09:22;20.90;33.90
11454;DHT22;5783;55.174;61.310;2023-03-24T17:12:12;20.90;33.90
11454;DHT22;5783;55.174;61.310;2023-03-24T17:14:41;20.90;33.90
11454;DHT22;5783;55.174;61.310;2023-03-24T17:17:10;20.90;34.00
11454;DHT22;5783;55.174;61.310;2023-03-24T17:19:40;21.00;34.00
11454;DHT22;5783;55.174;61.310;2023-03-24T17:22:09;21.00;34.00
11454;DHT22;5783;55.174;61.310;2023-03-24T17:24:40;21.00;34.00
11454;DHT22;5783;55.174;61.310;2023-03-24T17:27:12;21.00;33.90
11454;DHT22;5783;55.174;61.310;2023-03-24T17:29:42;21.00;34.00
11454;DHT22;5783;55.174;61.310;2023-03-24T17:32:11;21.00;33.90
11454;DHT22;5783;55.174;61.310;2023-03-24T17:35:00;21.00;33.90
11454;DHT22;5783;55.174;61.310;2023-03-24T17:37:31;21.00;33.90
11454;DHT22;5783;55.174;61.310;2023-03-24T17:40:00;21.00;33.90
11454;DHT22;5783;55.174;61.310;2023-03-24T17:42:32;21.00;33.90
11454;DHT22;5783;55.174;61.310;2023-03-24T17:45:01;21.00;34.00
11454;DHT22;5783;55.174;61.310;2023-03-24T17:47:51;21.00;33.90
11454;DHT22;5783;55.174;61.310;2023-03-24T17:50:21;20.90;33.90
11454;DHT22;5783;55.174;61.310;2023-03-24T17:53:09;20.90;33.90
11454;DHT22;5783;55.174;61.310;2023-03-24T17:55:39;20.90;34.00
11454;DHT22;5783;55.174;61.310;2023-03-24T17:58:08;20.90;34.00
11454;DHT22;5783;55.174;61.310;2023-03-24T18:00:37;20.90;34.00
11454;DHT22;5783;55.174;61.310;2023-03-24T18:03:07;21.00;34.10
11454;DHT22;5783;55.174;61.310;2023-03-24T18:05:36;21.00;34.10
11454;DHT22;5783;55.174;61.310;2023-03-24T18:08:06;21.00;34.00
11454;DHT22;5783;55.174;61.310;2023-03-24T18:10:35;21.00;34.10
11454;DHT22;5783;55.174;61.310;2023-03-24T18:13:06;21.00;34.20
11454;DHT22;5783;55.174;61.310;2023-03-24T18:15:35;21.00;34.10
11454;DHT22;5783;55.174;61.310;2023-03-24T18:18:04;21.00;34.20
11454;DHT22;5783;55.174;61.310;2023-03-24T18:20:33;21.00;34.20
11454;DHT22;5783;55.174;61.310;2023-03-24T18:23:05;21.00;34.10
11454;DHT22;5783;55.174;61.310;2023-03-24T18:25:34;21.00;34.20
11454;DHT22;5783;55.174;61.310;2023-03-24T18:28:04;21.00;34.10
11454;DHT22;5783;55.174;61.310;2023-03-24T18:30:35;21.00;34.00
11454;DHT22;5783;55.174;61.310;2023-03-24T18:33:04;21.00;33.90
11454;DHT22;5783;55.174;61.310;2023-03-24T18:35:33;21.00;33.90
11454;DHT22;5783;55.174;61.310;2023-03-24T18:38:03;21.00;33.90
11454;DHT22;5783;55.174;61.310;2023-03-24T18:40:32;21.00;33.80
11454;DHT22;5783;55.174;61.310;2023-03-24T18:43:01;21.10;33.80
11454;DHT22;5783;55.174;61.310;2023-03-24T18:45:30;21.10;33.80
11454;DHT22;5783;55.174;61.310;2023-03-24T18:47:59;21.10;33.80
11454;DHT22;5783;55.174;61.310;2023-03-24T18:50:29;21.10;33.80
11454;DHT22;5783;55.174;61.310;2023-03-24T18:52:58;21.10;33.80
11454;DHT22;5783;55.174;61.310;2023-03-24T18:55:27;21.00;33.70
11454;DHT22;5783;55.174;61.310;2023-03-24T18:57:56;21.00;33.70
11454;DHT22;5783;55.174;61.310;2023-03-24T19:00:26;21.10;33.80
11454;DHT22;5783;55.174;61.310;2023-03-24T19:02:55;21.10;33.80
11454;DHT22;5783;55.174;61.310;2023-03-24T19:05:25;21.10;33.90
11454;DHT22;5783;55.174;61.310;2023-03-24T19:07:55;21.10;34.00
11454;DHT22;5783;55.174;61.310;2023-03-24T19:10:26;21.10;33.90
11454;DHT22;5783;55.174;61.310;2023-03-24T19:12:57;21.10;34.00
11454;DHT22;5783;55.174;61.310;2023-03-24T19:15:26;21.00;34.00
11454;DHT22;5783;55.174;61.310;2023-03-24T19:17:56;21.00;34.00
11454;DHT22;5783;55.174;61.310;2023-03-24T19:20:26;21.00;34.00
11454;DHT22;5783;55.174;61.310;2023-03-24T19:22:55;21.10;34.10
11454;DHT22;5783;55.174;61.310;2023-03-24T19:25:25;21.10;34.10
11454;DHT22;5783;55.174;61.310;2023-03-24T19:27:54;21.10;34.00
11454;DHT22;5783;55.174;61.310;2023-03-24T19:30:23;21.10;34.00
11454;DHT22;5783;55.174;61.310;2023-03-24T19:32:53;21.10;34.00
11454;DHT22;5783;55.174;61.310;2023-03-24T19:35:22;21.10;34.00
11454;DHT22;5783;55.174;61.310;2023-03-24T19:37:52;21.10;33.90
11454;DHT22;5783;55.174;61.310;2023-03-24T19:40:21;21.10;33.90
11454;DHT22;5783;55.174;61.310;2023-03-24T19:42:53;21.10;33.90
11454;DHT22;5783;55.174;61.310;2023-03-24T19:45:22;21.10;33.80
11454;DHT22;5783;55.174;61.310;2023-03-24T19:47:51;21.10;33.90
11454;DHT22;5783;55.174;61.310;2023-03-24T19:50:20;21.10;34.00
11454;DHT22;5783;55.174;61.310;2023-03-24T19:52:51;21.00;33.80
11454;DHT22;5783;55.174;61.310;2023-03-24T19:55:21;21.00;33.80
11454;DHT22;5783;55.174;61.310;2023-03-24T19:57:50;21.00;33.80
11454;DHT22;5783;55.174;61.310;2023-03-24T20:00:19;21.00;33.90
11454;DHT22;5783;55.174;61.310;2023-03-24T20:02:48;20.90;33.90
11454;DHT22;5783;55.174;61.310;2023-03-24T20:05:17;20.90;34.00